createdAt,value
2019-06-07T00:01:52.954Z,7.90
2019-06-07T00:04:21.516Z,7.83
2019-06-07T00:06:49.025Z,7.97
2019-06-07T00:09:21.751Z,7.37
2019-06-07T00:11:45.801Z,7.57
2019-06-07T00:14:15.738Z,8.30
2019-06-07T00:16:42.543Z,8.33
2019-06-07T00:19:10.024Z,7.75
2019-06-07T00:24:08.772Z,7.67
2019-06-07T00:26:55.105Z,6.63
2019-06-07T00:29:05.683Z,6.80
2019-06-07T00:31:33.115Z,8.27
2019-06-07T00:34:00.650Z,8.10
2019-06-07T00:36:28.117Z,7.65
2019-06-07T00:38:55.603Z,7.07
2019-06-07T00:41:23.104Z,7.30
2019-06-07T00:43:50.559Z,7.43
2019-06-07T00:46:18.904Z,6.90
2019-06-07T00:48:47.284Z,7.67
2019-06-07T00:51:17.172Z,7.97
2019-06-07T00:53:44.098Z,7.23
2019-06-07T00:56:11.554Z,8.10
2019-06-07T00:58:38.986Z,8.83
2019-06-07T01:01:06.547Z,7.87
2019-06-07T01:03:33.995Z,9.87
2019-06-07T01:06:01.482Z,9.70
2019-06-07T01:08:30.262Z,9.77
2019-06-07T01:10:57.843Z,9.05
2019-06-07T01:13:26.991Z,9.30
2019-06-07T01:15:54.551Z,10.27
2019-06-07T01:18:43.498Z,9.90
2019-06-07T01:20:51.300Z,10.20
2019-06-07T01:23:54.270Z,10.63
2019-06-07T01:25:48.026Z,9.30
2019-06-07T01:28:16.661Z,9.33
2019-06-07T01:30:44.837Z,9.30
2019-06-07T01:33:12.306Z,8.47
2019-06-07T01:35:39.759Z,8.83
2019-06-07T01:38:07.239Z,9.03
2019-06-07T01:40:34.682Z,9.47
2019-06-07T01:43:02.124Z,10.50
2019-06-07T01:45:31.129Z,9.30
2019-06-07T01:47:58.769Z,11.50
2019-06-07T01:50:27.134Z,11.27
2019-06-07T01:52:54.684Z,11.70
2019-06-07T01:55:24.960Z,12.87
2019-06-07T01:57:51.413Z,11.70
2019-06-07T02:00:21.660Z,12.67
2019-06-07T02:02:49.021Z,12.40
2019-06-07T02:05:19.150Z,12.07
2019-06-07T02:07:45.845Z,13.78
2019-06-07T02:10:13.648Z,14.18
2019-06-07T02:12:43.623Z,14.93
2019-06-07T02:15:10.820Z,14.40
2019-06-07T02:17:38.312Z,14.80
2019-06-07T02:20:06.363Z,17.30
2019-06-07T02:22:33.843Z,16.60
2019-06-07T02:27:32.788Z,15.43
2019-06-07T02:30:00.164Z,16.45
2019-06-07T02:32:31.984Z,16.12
2019-06-07T02:34:56.940Z,15.30
2019-06-07T02:37:26.875Z,15.88
2019-06-07T02:39:53.672Z,15.45
2019-06-07T02:42:25.235Z,14.75
2019-06-07T02:44:50.445Z,15.73
2019-06-07T02:47:17.854Z,15.40
2019-06-07T02:49:45.284Z,14.75
2019-06-07T02:52:12.752Z,16.10
2019-06-07T02:54:40.934Z,15.00
2019-06-07T02:57:08.568Z,13.85
2019-06-07T03:00:02.838Z,15.53
2019-06-07T03:02:05.274Z,14.35
2019-06-07T03:04:40.570Z,14.30
2019-06-07T03:07:03.261Z,15.70
2019-06-07T03:09:34.410Z,16.40
2019-06-07T03:12:02.098Z,15.83
2019-06-07T03:14:35.243Z,15.60
2019-06-07T03:17:15.315Z,16.40
2019-06-07T03:19:45.292Z,16.52
2019-06-07T03:22:12.746Z,15.05
2019-06-07T03:24:44.126Z,15.95
2019-06-07T03:29:41.887Z,15.05
2019-06-07T03:32:09.308Z,15.03
2019-06-07T03:34:40.985Z,15.53
2019-06-07T03:37:06.038Z,14.63
2019-06-07T03:39:34.326Z,15.08
2019-06-07T03:42:06.783Z,14.13
2019-06-07T03:44:35.164Z,15.00
2019-06-07T03:47:01.325Z,14.73
2019-06-07T03:49:30.779Z,15.00
2019-06-07T03:51:58.056Z,14.47
2019-06-07T03:54:25.486Z,14.98
2019-06-07T03:56:52.963Z,15.40
2019-06-07T03:59:20.393Z,13.87
2019-06-07T04:01:48.721Z,14.45
2019-06-07T04:04:16.195Z,13.58
2019-06-07T04:06:43.667Z,13.55
2019-06-07T04:09:11.115Z,13.85
2019-06-07T04:11:39.401Z,13.80
2019-06-07T04:14:07.915Z,14.38
2019-06-07T04:16:40.416Z,14.78
2019-06-07T04:19:04.884Z,14.80
2019-06-07T04:21:35.082Z,14.68
2019-06-07T04:24:01.634Z,13.88
2019-06-07T04:26:31.429Z,14.28
2019-06-07T04:31:28.381Z,14.07
2019-06-07T04:33:55.941Z,14.70
2019-06-07T04:36:39.348Z,14.95
2019-06-07T04:38:54.135Z,15.72
2019-06-07T04:41:23.718Z,14.75
2019-06-07T04:43:51.157Z,14.15
2019-06-07T04:46:21.975Z,15.10
2019-06-07T04:48:50.478Z,15.23
2019-06-07T04:51:20.197Z,15.72
2019-06-07T04:53:47.689Z,13.98
2019-06-07T04:56:15.151Z,14.80
2019-06-07T04:58:43.253Z,13.48
2019-06-07T05:01:26.363Z,15.03
2019-06-07T05:03:44.064Z,13.98
2019-06-07T05:06:09.334Z,13.22
2019-06-07T05:08:40.573Z,14.05
2019-06-07T05:11:06.603Z,13.90
2019-06-07T05:13:36.740Z,14.10
2019-06-07T05:16:03.638Z,14.10
2019-06-07T05:18:33.658Z,13.10
2019-06-07T05:21:00.407Z,13.22
2019-06-07T05:24:02.538Z,13.13
2019-06-07T05:25:57.081Z,13.68
2019-06-07T05:28:24.546Z,14.03
2019-06-07T05:31:08.138Z,13.43
2019-06-07T05:33:21.423Z,13.00
2019-06-07T05:35:48.898Z,13.08
2019-06-07T05:38:16.355Z,13.78
2019-06-07T05:40:48.574Z,12.68
2019-06-07T05:43:24.287Z,13.83
2019-06-07T05:45:51.716Z,13.13
2019-06-07T05:48:19.163Z,14.00
2019-06-07T05:50:56.061Z,13.05
2019-06-07T05:53:15.873Z,12.25
2019-06-07T05:55:46.860Z,13.13
2019-06-07T05:58:12.621Z,13.13
2019-06-07T06:00:41.500Z,12.80
2019-06-07T06:03:09.659Z,12.18
2019-06-07T06:05:42.118Z,12.03
2019-06-07T06:08:06.358Z,12.73
2019-06-07T06:10:34.061Z,13.98
2019-06-07T06:13:01.573Z,12.68
2019-06-07T06:15:42.215Z,12.70
2019-06-07T06:17:58.382Z,14.43
2019-06-07T06:20:32.794Z,12.73
2019-06-07T06:22:55.063Z,12.60
2019-06-07T06:25:32.957Z,12.68
2019-06-07T06:28:12.460Z,12.15
2019-06-07T06:30:23.129Z,11.12
2019-06-07T06:32:57.441Z,11.08
2019-06-07T06:35:19.839Z,10.35
2019-06-07T06:37:53.060Z,9.65
2019-06-07T06:40:16.879Z,10.32
2019-06-07T06:42:45.432Z,9.40
2019-06-07T06:45:15.564Z,10.18
2019-06-07T06:47:43.947Z,9.25
2019-06-07T06:50:12.662Z,8.58
2019-06-07T06:52:43.632Z,8.63
2019-06-07T06:55:09.602Z,8.50
2019-06-07T06:57:40.196Z,8.90
2019-06-07T07:00:07.771Z,8.53
2019-06-07T07:03:06.105Z,8.53
2019-06-07T07:05:05.668Z,9.05
2019-06-07T07:07:33.431Z,8.68
2019-06-07T07:10:03.151Z,9.00
2019-06-07T07:12:30.870Z,8.75
2019-06-07T07:14:58.357Z,8.80
2019-06-07T07:17:47.154Z,8.83
2019-06-07T07:19:55.811Z,9.15
2019-06-07T07:22:23.304Z,8.83
2019-06-07T07:24:53.347Z,9.15
2019-06-07T07:27:20.334Z,9.03
2019-06-07T07:29:52.623Z,9.78
2019-06-07T07:32:17.488Z,9.60
2019-06-07T07:34:46.022Z,8.73
2019-06-07T07:37:14.259Z,9.08
2019-06-07T07:39:41.696Z,9.33
2019-06-07T07:42:20.721Z,8.50
2019-06-07T07:44:38.760Z,7.60
2019-06-07T07:47:06.482Z,8.75
2019-06-07T07:49:33.952Z,8.38
2019-06-07T07:52:01.730Z,8.13
2019-06-07T07:54:29.243Z,7.83
2019-06-07T07:56:57.392Z,9.08
2019-06-07T07:59:41.166Z,9.00
2019-06-07T08:01:56.003Z,8.18
2019-06-07T08:04:39.569Z,9.05
2019-06-07T08:06:55.713Z,9.73
2019-06-07T08:09:21.991Z,9.65
2019-06-07T08:11:51.934Z,8.75
2019-06-07T08:14:18.699Z,9.35
2019-06-07T08:16:47.023Z,9.00
2019-06-07T08:19:14.531Z,8.78
2019-06-07T08:21:41.948Z,9.50
2019-06-07T08:24:09.401Z,8.20
2019-06-07T08:26:36.846Z,8.70
2019-06-07T08:29:04.623Z,9.10
2019-06-07T08:31:32.044Z,8.00
2019-06-07T08:34:00.716Z,8.88
2019-06-07T08:36:41.478Z,9.05
2019-06-07T08:39:05.722Z,8.95
2019-06-07T08:41:27.100Z,8.60
2019-06-07T08:43:57.867Z,8.75
2019-06-07T08:46:23.833Z,7.83
2019-06-07T08:48:53.356Z,9.35
2019-06-07T08:51:20.602Z,7.95
2019-06-07T08:54:02.773Z,8.80
2019-06-07T08:56:17.668Z,9.38
2019-06-07T08:58:45.171Z,9.08
2019-06-07T09:01:12.868Z,8.30
2019-06-07T09:03:40.352Z,8.25
2019-06-07T09:06:53.778Z,8.33
2019-06-07T09:08:37.073Z,9.30
2019-06-07T09:11:10.466Z,7.75
2019-06-07T09:13:33.877Z,7.45
2019-06-07T09:16:08.074Z,7.90
2019-06-07T09:18:42.308Z,7.53
2019-06-07T09:21:01.202Z,7.90
2019-06-07T09:23:29.207Z,8.18
2019-06-07T09:26:05.181Z,7.62
2019-06-07T09:28:26.329Z,7.78
2019-06-07T09:30:53.811Z,7.60
2019-06-07T09:33:21.254Z,7.58
2019-06-07T09:35:48.737Z,8.25
2019-06-07T09:38:25.794Z,8.25
2019-06-07T09:40:45.452Z,6.90
2019-06-07T09:45:42.183Z,7.62
2019-06-07T09:48:15.723Z,7.87
2019-06-07T09:50:38.925Z,6.87
2019-06-07T09:53:20.342Z,6.70
2019-06-07T09:55:35.713Z,6.25
2019-06-07T09:58:30.890Z,6.67
2019-06-07T10:00:40.571Z,6.80
2019-06-07T10:03:08.853Z,6.72
2019-06-07T10:05:31.108Z,6.47
2019-06-07T10:08:12.389Z,7.12
2019-06-07T10:12:57.204Z,7.20
2019-06-07T10:15:24.653Z,6.47
2019-06-07T10:17:52.091Z,6.70
2019-06-07T10:20:19.599Z,6.40
2019-06-07T10:22:47.083Z,6.80
2019-06-07T10:25:14.851Z,7.35
2019-06-07T10:27:42.383Z,7.03
2019-06-07T10:30:10.437Z,6.47
2019-06-07T10:32:37.950Z,6.90
2019-06-07T10:35:07.630Z,6.90
2019-06-07T10:37:35.575Z,7.42
2019-06-07T10:40:04.825Z,6.00
2019-06-07T10:42:32.302Z,6.60
2019-06-07T10:45:02.054Z,6.67
2019-06-07T10:47:29.048Z,6.50
2019-06-07T10:49:56.540Z,6.53
2019-06-07T10:52:24.420Z,6.72
2019-06-07T10:54:51.884Z,6.40
2019-06-07T10:57:19.373Z,7.25
2019-06-07T10:59:46.845Z,5.62
2019-06-07T11:02:14.348Z,6.83
2019-06-07T11:04:41.851Z,6.22
2019-06-07T11:07:10.084Z,6.17
2019-06-07T11:09:38.079Z,7.03
2019-06-07T11:12:06.407Z,6.15
2019-06-07T11:14:34.284Z,5.95
2019-06-07T11:17:01.784Z,6.15
2019-06-07T11:19:29.324Z,6.03
2019-06-07T11:21:57.047Z,6.20
2019-06-07T11:24:24.903Z,5.47
2019-06-07T11:26:52.412Z,6.08
2019-06-07T11:29:19.833Z,7.45
2019-06-07T11:31:47.680Z,5.20
2019-06-07T11:34:15.173Z,5.70
2019-06-07T11:36:42.631Z,5.65
2019-06-07T11:39:11.078Z,6.42
2019-06-07T11:41:38.684Z,5.17
2019-06-07T11:44:06.708Z,5.85
2019-06-07T11:46:34.308Z,5.03
2019-06-07T11:49:01.819Z,6.08
2019-06-07T11:51:29.320Z,6.47
2019-06-07T11:53:56.847Z,6.35
2019-06-07T11:56:24.764Z,5.37
2019-06-07T11:58:52.324Z,4.92
2019-06-07T12:01:20.350Z,5.10
2019-06-07T12:03:47.827Z,4.83
2019-06-07T12:06:16.419Z,4.90
2019-06-07T12:08:44.060Z,4.37
2019-06-07T12:11:12.203Z,3.90
2019-06-07T12:13:39.704Z,4.80
2019-06-07T12:16:07.197Z,4.50
2019-06-07T12:18:34.721Z,4.55
2019-06-07T12:21:02.244Z,4.67
2019-06-07T12:23:29.735Z,4.40
2019-06-07T12:25:57.269Z,4.55
2019-06-07T12:28:24.785Z,4.75
2019-06-07T12:30:55.097Z,4.95
2019-06-07T12:33:21.736Z,4.80
2019-06-07T12:35:49.288Z,4.55
2019-06-07T12:38:18.840Z,4.58
2019-06-07T12:40:57.182Z,4.70
2019-06-07T12:43:16.723Z,4.03
2019-06-07T12:45:45.627Z,4.78
2019-06-07T12:48:17.535Z,4.45
2019-06-07T12:50:43.939Z,4.28
2019-06-07T12:53:11.752Z,4.15
2019-06-07T12:55:39.220Z,4.28
2019-06-07T12:58:06.691Z,3.80
2019-06-07T13:00:34.278Z,3.95
2019-06-07T13:03:01.690Z,4.12
2019-06-07T13:05:29.188Z,4.12
2019-06-07T13:07:56.685Z,4.72
2019-06-07T13:10:26.380Z,5.40
2019-06-07T13:12:53.923Z,4.55
2019-06-07T13:15:24.487Z,4.70
2019-06-07T13:17:51.913Z,4.80
2019-06-07T13:20:20.393Z,4.30
2019-06-07T13:22:48.092Z,4.60
2019-06-07T13:25:16.316Z,4.10
2019-06-07T13:27:43.941Z,4.53
2019-06-07T13:30:13.253Z,4.12
2019-06-07T13:32:40.712Z,3.95
2019-06-07T13:35:09.189Z,4.42
2019-06-07T13:37:36.920Z,4.00
2019-06-07T13:40:05.522Z,4.00
2019-06-07T13:42:33.839Z,4.33
2019-06-07T13:45:01.326Z,3.52
2019-06-07T13:47:28.818Z,3.98
2019-06-07T13:49:56.370Z,3.90
2019-06-07T13:52:23.837Z,3.50
2019-06-07T13:54:51.336Z,3.90
2019-06-07T13:57:19.971Z,3.62
2019-06-07T13:59:47.512Z,4.10
2019-06-07T14:02:14.969Z,3.72
2019-06-07T14:04:42.465Z,3.77
2019-06-07T14:07:09.950Z,3.70
2019-06-07T14:09:37.460Z,3.90
2019-06-07T14:12:04.922Z,3.45
2019-06-07T14:14:32.396Z,4.08
2019-06-07T14:16:59.905Z,3.87
2019-06-07T14:19:28.651Z,3.77
2019-06-07T14:21:56.259Z,3.50
2019-06-07T14:24:25.154Z,3.70
2019-06-07T14:27:07.891Z,3.50
2019-06-07T14:29:36.351Z,4.12
2019-06-07T14:32:05.787Z,3.35
2019-06-07T14:34:33.378Z,3.90
2019-06-07T14:37:00.854Z,3.60
2019-06-07T14:39:29.611Z,3.87
2019-06-07T14:42:08.387Z,3.47
2019-06-07T14:44:27.775Z,4.17
2019-06-07T14:46:55.846Z,3.72
2019-06-07T14:49:24.467Z,3.80
2019-06-07T14:51:52.161Z,3.92
2019-06-07T14:54:19.673Z,3.85
2019-06-07T14:56:47.140Z,3.62
2019-06-07T14:59:14.667Z,3.75
2019-06-07T15:01:42.070Z,3.80
2019-06-07T15:04:09.525Z,3.35
2019-06-07T15:06:37.015Z,3.70
2019-06-07T15:09:05.467Z,3.80
2019-06-07T15:11:33.172Z,3.72
2019-06-07T15:14:00.805Z,3.62
2019-06-07T15:16:30.127Z,3.80
2019-06-07T15:18:58.057Z,3.58
2019-06-07T15:21:26.612Z,3.75
2019-06-07T15:23:54.207Z,3.83
2019-06-07T15:26:22.004Z,3.95
2019-06-07T15:28:49.587Z,3.83
2019-06-07T15:31:18.382Z,3.75
2019-06-07T15:33:46.143Z,3.50
2019-06-07T15:36:13.642Z,3.70
2019-06-07T15:38:41.177Z,3.87
2019-06-07T15:41:08.882Z,4.15
2019-06-07T15:43:37.431Z,3.83
2019-06-07T15:46:05.042Z,4.00
2019-06-07T15:48:33.873Z,3.83
2019-06-07T15:51:01.525Z,3.65
2019-06-07T15:53:32.723Z,4.22
2019-06-07T15:55:58.325Z,4.08
2019-06-07T15:58:25.847Z,3.85
2019-06-07T16:00:53.625Z,3.80
2019-06-07T16:03:21.087Z,3.92
2019-06-07T16:05:48.600Z,4.10
2019-06-07T16:08:16.415Z,3.62
2019-06-07T16:10:44.073Z,4.25
2019-06-07T16:13:11.971Z,3.75
2019-06-07T16:15:39.455Z,4.17
2019-06-07T16:18:06.972Z,4.15
2019-06-07T16:20:35.211Z,3.70
2019-06-07T16:23:02.857Z,3.75
2019-06-07T16:25:30.350Z,3.98
2019-06-07T16:27:58.197Z,4.10
2019-06-07T16:30:25.650Z,4.37
2019-06-07T16:32:53.116Z,3.72
2019-06-07T16:35:20.620Z,4.33
2019-06-07T16:37:51.644Z,4.40
2019-06-07T16:40:17.504Z,4.22
2019-06-07T16:42:45.295Z,3.37
2019-06-07T16:45:13.623Z,3.80
2019-06-07T16:47:42.944Z,3.20
2019-06-07T16:50:11.285Z,4.00
2019-06-07T16:52:39.163Z,4.28
2019-06-07T16:55:07.367Z,3.90
2019-06-07T16:57:34.837Z,4.10
2019-06-07T17:00:04.135Z,3.75
2019-06-07T17:02:31.596Z,4.60
2019-06-07T17:04:59.079Z,4.47
2019-06-07T17:07:26.541Z,4.60
2019-06-07T17:09:53.998Z,5.30
2019-06-07T17:12:21.494Z,5.15
2019-06-07T17:14:49.018Z,4.90
2019-06-07T17:17:16.551Z,4.75
2019-06-07T17:19:44.989Z,4.67
2019-06-07T17:22:12.617Z,4.62
2019-06-07T17:24:41.235Z,5.00
2019-06-07T17:27:08.860Z,4.80
2019-06-07T17:29:36.740Z,4.47
2019-06-07T17:32:04.249Z,4.40
2019-06-07T17:34:31.708Z,4.58
2019-06-07T17:36:59.220Z,4.67
2019-06-07T17:39:26.676Z,4.33
2019-06-07T17:42:01.818Z,4.22
2019-06-07T17:44:23.476Z,5.28
2019-06-07T17:46:51.815Z,3.90
2019-06-07T17:49:19.308Z,4.10
2019-06-07T17:51:48.020Z,4.45
2019-06-07T17:54:16.248Z,5.45
2019-06-07T17:56:44.507Z,5.60
2019-06-07T17:59:12.032Z,6.40
2019-06-07T18:01:41.695Z,4.92
2019-06-07T18:04:08.757Z,4.55
2019-06-07T18:06:38.220Z,9.48
2019-06-07T18:09:07.212Z,4.60
2019-06-07T18:11:34.763Z,3.77
2019-06-07T18:14:10.146Z,3.72
2019-06-07T18:16:31.632Z,3.85
2019-06-07T18:18:59.116Z,3.52
2019-06-07T18:21:26.595Z,3.83
2019-06-07T18:23:54.792Z,3.83
2019-06-07T18:26:22.374Z,4.12
2019-06-07T18:28:50.585Z,3.77
2019-06-07T18:31:18.168Z,5.90
2019-06-07T18:33:46.842Z,5.00
2019-06-07T18:36:14.363Z,3.80
2019-06-07T18:38:42.155Z,4.22
2019-06-07T18:41:09.630Z,3.80
2019-06-07T18:43:37.111Z,4.17
2019-06-07T18:46:04.608Z,3.90
2019-06-07T18:48:32.060Z,3.35
2019-06-07T18:50:59.554Z,3.33
2019-06-07T18:53:27.023Z,2.65
2019-06-07T18:55:54.557Z,3.27
2019-06-07T18:58:22.065Z,2.45
2019-06-07T19:00:49.902Z,2.17
2019-06-07T19:03:17.756Z,1.70
2019-06-07T19:05:45.286Z,1.90
2019-06-07T19:08:12.883Z,1.42
2019-06-07T19:10:40.558Z,1.42
2019-06-07T19:13:08.052Z,1.45
2019-06-07T19:15:35.715Z,0.82
2019-06-07T19:18:03.474Z,1.32
2019-06-07T19:20:31.288Z,1.30
2019-06-07T19:22:58.771Z,1.00
2019-06-07T19:25:26.244Z,1.95
2019-06-07T19:27:54.980Z,1.65
2019-06-07T19:30:22.628Z,0.90
2019-06-07T19:32:51.374Z,0.80
2019-06-07T19:35:19.558Z,0.80
2019-06-07T19:37:47.060Z,1.07
2019-06-07T19:40:14.935Z,0.88
2019-06-07T19:42:42.399Z,0.90
2019-06-07T19:45:29.729Z,0.98
2019-06-07T19:47:39.857Z,1.00
2019-06-07T19:50:07.480Z,1.10
2019-06-07T19:52:34.938Z,0.90
2019-06-07T19:55:06.636Z,1.20
2019-06-07T19:57:31.769Z,1.00
2019-06-07T19:59:59.567Z,1.00
2019-06-07T20:02:27.156Z,1.10
2019-06-07T20:04:59.172Z,0.85
2019-06-07T20:07:23.952Z,1.00
2019-06-07T20:09:51.711Z,1.40
2019-06-07T20:12:19.235Z,1.10
2019-06-07T20:14:46.803Z,1.02
2019-06-07T20:17:14.263Z,1.30
2019-06-07T20:19:41.744Z,1.75
2019-06-07T20:22:09.536Z,1.50
2019-06-07T20:24:38.135Z,1.47
2019-06-07T20:27:05.769Z,1.10
2019-06-07T20:29:33.320Z,1.37
2019-06-07T20:32:00.846Z,1.07
2019-06-07T20:34:28.320Z,1.00
2019-06-07T20:36:55.860Z,1.20
2019-06-07T20:39:23.706Z,1.20
2019-06-07T20:41:51.226Z,1.40
2019-06-07T20:44:18.719Z,1.20
2019-06-07T20:46:46.169Z,1.20
2019-06-07T20:49:13.676Z,1.57
2019-06-07T20:51:41.540Z,1.30
2019-06-07T20:54:09.345Z,1.42
2019-06-07T20:56:36.807Z,1.57
2019-06-07T20:59:04.781Z,1.37
2019-06-07T21:01:32.348Z,1.30
2019-06-07T21:04:01.022Z,1.40
2019-06-07T21:06:28.586Z,1.12
2019-06-07T21:08:56.182Z,1.57
2019-06-07T21:11:23.634Z,1.82
2019-06-07T21:13:51.114Z,1.40
2019-06-07T21:16:18.594Z,1.50
2019-06-07T21:18:46.074Z,2.08
2019-06-07T21:21:13.515Z,2.30
2019-06-07T21:23:41.000Z,1.77
2019-06-07T21:26:09.035Z,1.65
2019-06-07T21:28:39.683Z,1.77
2019-06-07T21:31:06.563Z,2.10
2019-06-07T21:33:34.163Z,2.17
2019-06-07T21:36:01.628Z,2.87
2019-06-07T21:38:29.169Z,1.80
2019-06-07T21:40:56.644Z,1.72
2019-06-07T21:43:24.185Z,1.30
2019-06-07T21:46:04.471Z,2.27
2019-06-07T21:48:20.929Z,2.58
2019-06-07T21:50:48.376Z,1.90
2019-06-07T21:53:15.858Z,2.20
2019-06-07T21:55:43.346Z,1.62
2019-06-07T21:58:11.243Z,1.57
2019-06-07T22:01:14.390Z,1.27
2019-06-07T22:03:42.063Z,1.40
2019-06-07T22:06:09.765Z,1.80
2019-06-07T22:08:37.304Z,2.08
2019-06-07T22:11:06.087Z,1.60
2019-06-07T22:13:33.738Z,1.70
2019-06-07T22:16:01.459Z,2.08
2019-06-07T22:18:28.896Z,2.00
2019-06-07T22:20:56.350Z,2.08
2019-06-07T22:23:23.791Z,2.10
2019-06-07T22:25:51.281Z,1.95
2019-06-07T22:28:18.726Z,1.77
2019-06-07T22:30:46.234Z,2.25
2019-06-07T22:33:15.054Z,2.00
2019-06-07T22:35:43.307Z,1.65
2019-06-07T22:38:10.790Z,1.40
2019-06-07T22:40:38.526Z,1.72
2019-06-07T22:43:07.267Z,1.55
2019-06-07T22:45:35.986Z,1.50
2019-06-07T22:48:03.903Z,2.02
2019-06-07T22:50:31.505Z,1.70
2019-06-07T22:52:58.981Z,1.50
2019-06-07T22:55:26.475Z,1.60
2019-06-07T22:57:57.811Z,1.72
2019-06-07T23:00:26.743Z,1.60
2019-06-07T23:02:54.521Z,1.80
2019-06-07T23:05:22.060Z,1.98
2019-06-07T23:07:49.555Z,1.60
2019-06-07T23:10:17.428Z,1.40
2019-06-07T23:12:45.036Z,1.40
2019-06-07T23:15:13.328Z,1.45
2019-06-07T23:17:40.955Z,1.70
2019-06-07T23:20:09.648Z,1.65
2019-06-07T23:22:37.159Z,1.92
2019-06-07T23:25:05.266Z,1.52
2019-06-07T23:27:32.738Z,1.37
2019-06-07T23:30:07.965Z,1.77
2019-06-07T23:32:29.830Z,1.60
2019-06-07T23:34:57.318Z,1.35
2019-06-07T23:37:24.822Z,1.32
2019-06-07T23:39:52.307Z,1.30
2019-06-07T23:42:19.808Z,1.57
2019-06-07T23:44:47.217Z,1.22
2019-06-07T23:47:16.979Z,1.15
2019-06-07T23:49:43.934Z,1.40
2019-06-07T23:52:11.837Z,1.75
2019-06-07T23:54:39.510Z,1.40
2019-06-07T23:57:06.988Z,1.47
2019-06-07T23:59:34.476Z,1.82
